Time;durP1;ratioP1;P1;durP2;ratioP2;P2;SDS_P1;SDS_P2;PMS_P1;PMS_P2;Temp;Humidity;BMP_temperature;BMP_pressure;BME280_temperature;BME280_humidity;BME280_pressure;Samples;Min_cycle;Max_cycle;Signal;HPM_P1;HPM_P2
2023/01/07 00:00:05;;;;;;;9.18;8.27;;;12.70;99.90;;;12.89;100.00;101345.59;5075363;28;20138;-71
2023/01/07 00:02:40;;;;;;;8.70;7.80;;;12.70;99.90;;;12.91;100.00;101343.81;5093276;28;20047;-71
2023/01/07 00:05:10;;;;;;;9.30;7.95;;;12.70;99.90;;;12.91;100.00;101354.44;5093619;28;20036;-71
2023/01/07 00:07:38;;;;;;;9.10;8.20;;;12.70;99.90;;;12.86;100.00;101338.53;5093154;28;20420;-71
2023/01/07 00:10:07;;;;;;;9.82;8.25;;;12.70;99.90;;;12.88;100.00;101342.06;5093323;28;20050;-71
2023/01/07 00:12:35;;;;;;;9.02;8.13;;;12.70;99.90;;;12.91;100.00;101319.91;5093998;28;20123;-71
2023/01/07 00:15:04;;;;;;;9.68;7.90;;;12.70;99.90;;;12.94;100.00;101331.41;5093249;28;20036;-71
2023/01/07 00:17:33;;;;;;;8.93;7.82;;;12.70;99.90;;;12.93;100.00;101340.22;5093182;28;20395;-71
2023/01/07 00:20:03;;;;;;;10.05;7.88;;;12.70;99.90;;;12.93;100.00;101332.28;5075171;28;20040;-71
2023/01/07 00:22:31;;;;;;;9.20;7.80;;;12.70;99.90;;;13.00;100.00;101349.06;5092885;28;20044;-71
2023/01/07 00:24:59;;;;;;;10.63;7.80;;;12.80;99.90;;;12.92;100.00;101326.97;5075039;28;20044;-71
2023/01/07 00:27:28;;;;;;;7.72;6.97;;;12.70;99.90;;;12.94;100.00;101334.06;5092905;28;20139;-71
2023/01/07 00:29:56;;;;;;;10.85;7.85;;;12.70;99.90;;;12.92;100.00;101327.88;5093397;28;20040;-71
2023/01/07 00:32:46;;;;;;;8.50;7.63;;;12.70;99.90;;;12.92;100.00;101319.91;5093124;28;20052;-71
2023/01/07 00:35:22;;;;;;;10.95;7.72;;;12.70;99.90;;;12.90;100.00;101332.31;5074907;28;20416;-71
2023/01/07 00:37:51;;;;;;;8.35;7.38;;;12.70;99.90;;;12.87;100.00;101327.03;5092761;28;20056;-71
2023/01/07 00:40:20;;;;;;;8.43;7.57;;;12.70;99.90;;;12.97;100.00;101328.69;5093125;28;20049;-71
2023/01/07 00:43:00;;;;;;;8.90;7.18;;;12.70;99.90;;;12.91;100.00;101317.25;5074794;28;20058;-70
2023/01/07 00:45:32;;;;;;;8.85;7.18;;;12.70;99.90;;;12.92;100.00;101335.84;5074877;28;20079;-73
2023/01/07 00:48:03;;;;;;;10.07;7.80;;;12.70;99.90;;;12.90;100.00;101315.47;5092783;28;20123;-71
2023/01/07 00:50:36;;;;;;;11.88;7.50;;;12.70;99.90;;;12.92;100.00;101311.94;5074773;28;20040;-71
2023/01/07 00:53:05;;;;;;;8.35;6.78;;;12.70;99.90;;;12.94;100.00;101311.91;5074740;28;20452;-71
2023/01/07 00:55:33;;;;;;;8.38;7.45;;;12.70;99.90;;;12.92;100.00;101308.38;5074644;28;20543;-71
2023/01/07 00:58:02;;;;;;;8.63;7.03;;;12.70;99.90;;;12.91;100.00;101323.44;5092873;28;20119;-72
2023/01/07 01:00:31;;;;;;;8.25;7.40;;;12.70;99.90;;;12.83;100.00;101296.09;5093015;28;20032;-72
2023/01/07 01:02:59;;;;;;;7.80;7.03;;;12.60;99.90;;;12.91;100.00;101373.88;5074474;28;20048;-72
2023/01/07 01:05:28;;;;;;;13.88;7.82;;;12.70;99.90;;;12.91;100.00;101296.88;5092729;28;20052;-71
2023/01/07 01:07:58;;;;;;;7.50;6.72;;;12.70;99.90;;;12.89;100.00;101284.53;5092776;28;20049;-72
2023/01/07 01:10:26;;;;;;;9.80;7.30;;;12.60;99.90;;;12.90;100.00;101278.31;5092961;28;20044;-72
2023/01/07 01:12:55;;;;;;;8.35;7.45;;;12.70;99.90;;;12.89;100.00;101285.38;5074776;28;20440;-72
2023/01/07 01:15:23;;;;;;;10.10;7.20;;;12.70;99.90;;;12.80;100.00;101276.59;5092408;28;20443;-71
2023/01/07 01:17:52;;;;;;;9.82;8.13;;;12.60;99.90;;;12.80;100.00;101293.44;5074864;28;20135;-72
2023/01/07 01:20:20;;;;;;;13.57;8.02;;;12.60;99.90;;;12.72;100.00;101297.03;5078263;28;20504;-71
2023/01/07 01:22:49;;;;;;;9.40;7.75;;;12.60;99.90;;;12.75;100.00;101279.31;5096037;28;20046;-72
2023/01/07 01:25:19;;;;;;;11.13;7.57;;;12.50;99.90;;;12.75;100.00;101260.72;5096132;28;20316;-71
2023/01/07 01:27:47;;;;;;;10.15;7.30;;;12.50;99.90;;;12.74;100.00;101279.34;5096353;28;20048;-72
2023/01/07 01:30:16;;;;;;;9.95;7.18;;;12.50;99.90;;;12.74;100.00;101277.53;5096234;28;20044;-71
2023/01/07 01:32:45;;;;;;;10.57;7.80;;;12.50;99.90;;;12.81;99.98;101259.81;5077810;28;20075;-72
2023/01/07 01:35:14;;;;;;;10.20;8.07;;;12.50;99.90;;;12.33;99.93;101186.72;5077933;28;20066;-71
2023/01/07 01:37:43;;;;;;;9.85;7.75;;;12.60;99.90;;;12.81;99.68;101271.31;5094877;28;20048;-72
2023/01/07 01:40:12;;;;;;;9.48;7.30;;;12.60;99.90;;;12.76;99.97;101253.63;5077848;28;20043;-72
2023/01/07 01:42:42;;;;;;;16.42;7.75;;;12.50;99.90;;;12.75;100.00;101247.47;5077776;28;20044;-72
2023/01/07 01:45:15;;;;;;;9.27;7.70;;;12.50;99.90;;;12.76;100.00;101257.19;5096155;28;20047;-71
2023/01/07 01:47:47;;;;;;;13.50;7.22;;;12.50;99.90;;;12.76;100.00;101258.94;5094691;28;20048;-72
2023/01/07 01:50:22;;;;;;;8.73;7.18;;;12.50;99.90;;;12.80;100.00;101250.94;5096004;28;20127;-72
2023/01/07 01:52:56;;;;;;;9.10;6.78;;;12.60;99.90;;;12.77;99.96;101253.66;5077826;28;20142;-71
2023/01/07 01:55:38;;;;;;;9.07;7.55;;;12.60;99.90;;;12.79;99.70;101257.16;5077688;28;20044;-71
2023/01/07 01:58:16;;;;;;;10.05;7.70;;;12.60;99.90;;;12.72;99.78;101250.13;5094572;28;20055;-71
2023/01/07 02:00:44;;;;;;;9.07;7.32;;;12.50;99.90;;;12.82;99.49;101264.22;5077638;28;20147;-71
2023/01/07 02:03:18;;;;;;;13.25;7.88;;;12.60;99.90;;;12.79;99.05;101243.00;5077460;28;20040;-71
2023/01/07 02:05:48;;;;;;;9.82;7.35;;;12.60;99.90;;;10.81;99.02;100912.91;5095418;28;20172;-71
2023/01/07 02:08:20;;;;;;;9.07;7.10;;;12.50;99.90;;;12.67;99.22;101262.56;5095287;28;20047;-71
2023/01/07 02:11:07;;;;;;;10.23;7.32;;;12.50;99.90;;;12.73;99.38;101240.38;5077367;28;20397;-71
2023/01/07 02:13:58;;;;;;;9.98;7.28;;;12.50;99.90;;;12.69;99.08;101243.09;5077369;28;20043;-72
2023/01/07 02:16:35;;;;;;;13.20;8.35;;;12.50;99.90;;;12.59;99.17;101222.81;5073655;28;20060;-71
2023/01/07 02:19:37;;;;;;;9.73;7.85;;;12.40;99.90;;;12.61;99.33;101233.41;5075342;28;20041;-72
2023/01/07 02:22:14;;;;;;;10.15;8.35;;;12.40;99.90;;;12.57;99.56;101248.47;5075062;28;20449;-72
2023/01/07 02:25:18;;;;;;;13.10;8.50;;;12.40;99.90;;;12.52;99.25;101234.31;5073696;28;20478;-71
2023/01/07 02:28:19;;;;;;;8.90;8.00;;;12.40;99.90;;;12.53;99.40;101227.25;5064013;28;20051;-71
2023/01/07 02:31:49;;;;;;;12.77;8.85;;;12.30;99.90;;;12.36;99.62;101215.88;5072663;28;20040;-71
2023/01/07 02:34:28;;;;;;;15.23;9.18;;;12.30;99.90;;;12.36;99.89;101248.59;5051817;28;20068;-72
2023/01/07 02:37:06;;;;;;;14.23;9.23;;;12.20;99.90;;;12.28;100.00;101223.00;5075102;28;20051;-72
2023/01/07 02:39:48;;;;;;;14.07;8.98;;;12.10;99.90;;;12.29;100.00;101230.94;5073740;28;20045;-71
2023/01/07 02:42:27;;;;;;;14.40;9.57;;;12.10;99.90;;;12.35;100.00;101227.41;5075075;28;20036;-71
2023/01/07 02:45:04;;;;;;;12.07;8.50;;;12.20;99.90;;;12.26;100.00;101232.72;5073578;28;20044;-71
2023/01/07 02:47:37;;;;;;;12.00;8.98;;;12.10;99.90;;;12.29;100.00;101216.81;5073642;28;20044;-71
2023/01/07 02:50:09;;;;;;;11.15;8.32;;;12.10;99.90;;;12.31;100.00;101223.00;5073746;28;20515;-71
2023/01/07 02:52:38;;;;;;;11.07;8.68;;;12.10;99.90;;;12.32;99.90;101217.69;5090601;28;20045;-71
2023/01/07 02:55:12;;;;;;;15.20;9.25;;;12.10;99.90;;;12.26;100.00;101220.34;5074592;28;20049;-72
2023/01/07 02:58:36;;;;;;;13.05;9.90;;;12.10;99.90;;;12.27;100.00;101208.84;5073314;28;20048;-71
2023/01/07 03:01:36;;;;;;;11.95;8.77;;;12.10;99.90;;;12.29;100.00;101212.38;5074566;28;20500;-72
2023/01/07 03:04:24;;;;;;;15.70;8.80;;;12.10;99.90;;;11.71;99.74;101107.56;5073158;28;20397;-72
2023/01/07 03:07:11;;;;;;;12.18;8.45;;;12.10;99.90;;;12.20;100.00;101196.53;5073119;28;20290;-71
2023/01/07 03:09:50;;;;;;;13.60;8.85;;;12.10;99.90;;;12.23;100.00;101208.88;5074062;28;20040;-71
2023/01/07 03:12:26;;;;;;;12.20;8.45;;;12.00;99.90;;;12.19;99.85;101221.28;5073106;28;20499;-72
2023/01/07 03:15:02;;;;;;;13.02;8.52;;;12.00;99.90;;;12.04;100.00;101209.88;5073085;28;20045;-71
2023/01/07 03:17:38;;;;;;;11.30;8.25;;;12.00;99.90;;;12.27;99.50;101218.59;5072997;28;20418;-71
2023/01/07 03:20:09;;;;;;;11.05;8.88;;;12.10;99.90;;;12.32;99.26;101196.44;5074204;28;20139;-71
2023/01/07 03:22:43;;;;;;;11.55;8.73;;;12.10;99.90;;;12.26;99.30;101207.09;5089321;28;20098;-71
2023/01/07 03:25:13;;;;;;;9.50;7.97;;;12.10;99.90;;;12.28;99.32;101204.44;5073929;28;20079;-72
2023/01/07 03:27:45;;;;;;;12.88;8.90;;;12.10;99.90;;;12.27;99.21;101194.72;5073989;28;20052;-71
2023/01/07 03:30:17;;;;;;;12.35;8.50;;;12.10;99.90;;;12.25;99.19;101192.06;5072563;28;20052;-72
2023/01/07 03:32:52;;;;;;;11.13;8.93;;;12.10;99.90;;;12.27;99.12;101195.59;5072471;28;20102;-71
2023/01/07 03:35:22;;;;;;;12.32;8.23;;;12.10;99.90;;;12.22;99.24;101185.91;5072433;28;20075;-71
2023/01/07 03:37:53;;;;;;;21.48;9.55;;;12.00;99.90;;;12.25;99.27;101189.41;5073455;28;20478;-72
2023/01/07 03:40:22;;;;;;;12.60;8.90;;;12.00;99.90;;;12.16;99.40;101180.63;5073322;28;20082;-71
2023/01/07 03:42:49;;;;;;;17.23;8.82;;;12.00;99.90;;;12.21;99.39;101195.66;5089126;28;20098;-71
2023/01/07 03:45:24;;;;;;;11.45;8.85;;;12.00;99.90;;;12.15;99.59;101189.50;5073398;28;20102;-71
2023/01/07 03:47:57;;;;;;;13.82;8.80;;;12.00;99.90;;;12.25;99.60;101185.91;5072155;28;20433;-71
2023/01/07 03:50:33;;;;;;;13.27;8.98;;;12.10;99.90;;;12.00;99.74;101147.16;5072354;28;20053;-71
2023/01/07 03:53:03;;;;;;;9.77;8.38;;;12.00;99.90;;;12.20;100.00;101180.59;5071978;28;20078;-72
2023/01/07 03:55:35;;;;;;;10.45;8.85;;;12.00;99.90;;;12.14;100.00;101182.41;5071939;28;20048;-72
2023/01/07 03:58:04;;;;;;;13.27;9.43;;;12.00;99.90;;;12.21;100.00;101169.13;5088751;28;20094;-71
2023/01/07 04:00:32;;;;;;;12.38;8.93;;;12.00;99.90;;;12.24;100.00;101192.06;5073176;28;20090;-71
2023/01/07 04:03:10;;;;;;;14.05;10.10;;;12.00;99.90;;;12.17;100.00;101171.78;5071971;28;20059;-72
2023/01/07 04:05:41;;;;;;;11.90;9.07;;;12.00;99.90;;;12.05;100.00;101162.13;5071834;28;20072;-71
2023/01/07 04:08:12;;;;;;;12.35;9.50;;;12.00;99.90;;;12.15;100.00;101173.56;5073154;28;20047;-71
2023/01/07 04:10:42;;;;;;;13.25;9.65;;;12.00;99.90;;;12.25;100.00;101177.94;5072143;28;20052;-71
2023/01/07 04:13:12;;;;;;;15.50;9.70;;;12.00;99.90;;;12.23;100.00;101169.09;5071884;28;20417;-71
2023/01/07 04:15:43;;;;;;;12.10;9.63;;;12.00;99.90;;;12.25;100.00;101149.63;5071459;28;20147;-72
2023/01/07 04:18:12;;;;;;;13.65;9.82;;;12.10;99.90;;;11.84;100.00;101066.84;5071705;28;20057;-71
2023/01/07 04:20:40;;;;;;;13.43;10.07;;;12.10;99.90;;;12.25;100.00;101159.38;5071715;28;20139;-71
2023/01/07 04:23:09;;;;;;;14.20;9.13;;;12.10;99.90;;;12.29;100.00;101163.78;5071596;28;20098;-72
2023/01/07 04:25:39;;;;;;;13.40;9.60;;;12.10;99.90;;;12.21;100.00;101147.91;5071185;28;20044;-72
2023/01/07 04:28:09;;;;;;;14.65;10.10;;;12.10;99.90;;;12.11;100.00;101129.41;5071923;28;20374;-72
2023/01/07 04:30:38;;;;;;;16.15;10.70;;;12.00;99.90;;;12.16;100.00;101155.00;5072879;28;20041;-71
2023/01/07 04:33:07;;;;;;;17.48;11.82;;;12.00;99.90;;;12.12;100.00;101136.44;5071591;28;20051;-73
2023/01/07 04:35:35;;;;;;;17.52;11.05;;;11.90;99.90;;;12.10;100.00;101138.25;5072727;28;20048;-71
2023/01/07 04:38:04;;;;;;;14.45;10.98;;;12.00;99.90;;;12.17;100.00;101129.38;5072812;28;20381;-72
2023/01/07 04:40:33;;;;;;;15.48;11.23;;;12.00;99.90;;;12.12;100.00;101141.75;5071471;28;20552;-71
2023/01/07 04:43:04;;;;;;;17.98;11.55;;;12.00;99.90;;;12.10;100.00;101146.22;5071423;28;20036;-71
2023/01/07 04:45:33;;;;;;;16.48;11.52;;;12.00;99.90;;;12.14;100.00;101134.66;5071418;28;20059;-72
2023/01/07 04:48:01;;;;;;;16.70;12.90;;;12.00;99.90;;;12.16;100.00;101111.69;5071460;28;20055;-73
2023/01/07 04:50:30;;;;;;;14.80;11.38;;;12.00;99.90;;;12.02;100.00;101117.06;5071372;28;20045;-73
2023/01/07 04:52:59;;;;;;;16.83;12.75;;;11.90;99.90;;;12.06;100.00;101121.47;5072363;28;20076;-72
2023/01/07 04:55:28;;;;;;;16.90;12.47;;;11.90;99.90;;;12.05;100.00;101108.22;5075271;28;20044;-73
2023/01/07 04:57:57;;;;;;;16.17;13.25;;;11.90;99.90;;;11.83;100.00;101082.75;5075374;28;20048;-72
2023/01/07 05:00:27;;;;;;;18.10;12.57;;;11.80;99.90;;;11.94;100.00;101125.97;5076589;28;20044;-72
2023/01/07 05:02:56;;;;;;;17.33;13.27;;;11.80;99.90;;;11.86;100.00;101117.19;5075396;28;20045;-71
2023/01/07 05:05:24;;;;;;;18.38;13.30;;;11.70;99.90;;;11.81;100.00;101073.94;5076549;28;20037;-72
2023/01/07 05:07:54;;;;;;;21.20;13.85;;;11.70;99.90;;;11.84;100.00;101095.13;5076761;28;20044;-72
2023/01/07 05:10:24;;;;;;;20.60;13.95;;;11.70;99.90;;;11.77;100.00;101083.66;5075282;28;20040;-71
2023/01/07 05:12:53;;;;;;;18.85;13.32;;;11.60;99.90;;;11.79;100.00;101077.47;5076405;28;20490;-71
2023/01/07 05:15:23;;;;;;;19.95;13.70;;;11.60;99.90;;;11.81;100.00;101072.16;5078234;28;20056;-71
2023/01/07 05:17:53;;;;;;;23.52;13.80;;;11.70;99.90;;;11.93;100.00;101074.72;5078247;28;20044;-71
2023/01/07 05:20:23;;;;;;;19.42;13.75;;;11.80;99.90;;;11.91;100.00;101089.75;5078495;28;20508;-72
2023/01/07 05:22:52;;;;;;;19.92;13.50;;;11.70;99.90;;;11.94;100.00;101086.22;5078472;28;20100;-72
2023/01/07 05:25:21;;;;;;;15.00;12.93;;;11.80;99.90;;;11.71;100.00;101052.78;5078372;28;20555;-72
2023/01/07 05:27:50;;;;;;;19.77;12.82;;;11.70;99.90;;;11.85;100.00;101071.25;5078281;28;20048;-72
2023/01/07 05:30:19;;;;;;;17.88;13.20;;;11.70;99.90;;;11.85;100.00;101078.31;5096579;28;20076;-72
2023/01/07 05:32:47;;;;;;;19.67;13.13;;;11.70;99.90;;;11.85;100.00;101073.88;5078444;28;20510;-72
2023/01/07 05:35:18;;;;;;;16.83;12.23;;;11.70;99.90;;;11.90;100.00;101071.22;5078192;28;20482;-72
2023/01/07 05:37:46;;;;;;;16.10;12.25;;;11.70;99.90;;;11.79;100.00;101080.13;5078431;28;20470;-72
2023/01/07 05:40:15;;;;;;;13.93;11.73;;;11.70;99.90;;;11.59;100.00;101021.00;5078369;28;20044;-72
2023/01/07 05:42:43;;;;;;;20.10;11.90;;;11.70;99.90;;;11.89;100.00;101038.53;5096323;28;20524;-72
2023/01/07 05:45:12;;;;;;;14.20;11.23;;;11.70;99.90;;;11.28;100.00;100953.25;5095171;28;20036;-72
2023/01/07 05:47:40;;;;;;;15.32;10.73;;;11.70;99.90;;;11.56;100.00;101006.91;5078045;28;20138;-72
2023/01/07 05:50:09;;;;;;;14.77;10.98;;;11.70;99.90;;;11.95;100.00;101051.75;5095756;28;20035;-72
2023/01/07 05:52:39;;;;;;;13.18;10.27;;;11.80;99.90;;;11.89;100.00;101043.81;5096006;28;20036;-72
2023/01/07 05:55:08;;;;;;;14.90;9.90;;;11.70;99.90;;;11.94;100.00;101059.72;5095655;28;20071;-72
2023/01/07 05:57:36;;;;;;;13.40;10.20;;;11.80;99.90;;;12.00;99.82;101035.81;5095805;28;20086;-72
2023/01/07 06:00:09;;;;;;;12.07;9.55;;;11.80;99.90;;;12.00;99.35;101033.16;5095546;28;20123;-72
2023/01/07 06:02:40;;;;;;;12.63;9.73;;;11.80;99.90;;;11.94;99.26;101033.22;5095612;28;20397;-72
2023/01/07 06:05:10;;;;;;;13.00;9.20;;;11.80;99.90;;;11.95;99.18;101042.91;5095355;28;20617;-72
2023/01/07 06:07:39;;;;;;;9.95;8.95;;;11.80;99.90;;;11.95;98.83;101038.50;5077463;28;20135;-72
2023/01/07 06:10:09;;;;;;;12.43;9.17;;;11.80;99.90;;;11.96;98.89;101024.34;5095741;28;20040;-72
2023/01/07 06:12:38;;;;;;;12.15;9.07;;;11.80;99.90;;;11.91;98.76;101023.50;5095290;28;20570;-72
2023/01/07 06:15:08;;;;;;;13.00;8.50;;;11.80;99.90;;;11.83;98.73;101033.25;5095295;28;20123;-71
2023/01/07 06:17:36;;;;;;;14.40;8.80;;;11.70;99.90;;;11.80;98.67;101033.31;5095185;28;20071;-72
2023/01/07 06:20:08;;;;;;;12.20;8.20;;;11.70;99.90;;;11.83;98.56;101011.22;5076773;28;20047;-72
2023/01/07 06:22:36;;;;;;;13.27;8.57;;;11.70;99.90;;;11.87;98.31;101023.50;5095344;28;20048;-71
2023/01/07 06:25:06;;;;;;;11.68;7.55;;;11.70;99.90;;;11.02;98.16;100875.75;5077076;28;20127;-72
2023/01/07 06:27:35;;;;;;;11.88;7.57;;;11.70;99.90;;;11.81;98.05;100994.44;5095283;28;20126;-72
2023/01/07 06:30:04;;;;;;;10.75;7.90;;;11.80;99.90;;;11.62;97.65;100969.78;5094926;28;20489;-72
2023/01/07 06:32:37;;;;;;;12.95;8.15;;;11.80;99.90;;;11.95;97.53;100992.53;5094930;28;20490;-72
2023/01/07 06:35:06;;;;;;;11.35;7.65;;;11.80;99.90;;;11.98;97.42;100987.22;5094954;28;20438;-72
2023/01/07 06:37:35;;;;;;;10.00;7.63;;;11.80;99.90;;;11.95;97.20;101016.38;5094963;28;20378;-72
2023/01/07 06:40:07;;;;;;;8.18;6.88;;;11.80;99.90;;;11.85;96.91;101004.97;5095057;28;20126;-72
2023/01/07 06:42:35;;;;;;;10.68;7.28;;;11.70;99.90;;;11.89;97.27;101008.47;5095042;28;20040;-71
2023/01/07 06:45:05;;;;;;;8.77;6.75;;;11.70;99.90;;;11.94;96.64;100993.44;5094630;28;20470;-71
2023/01/07 06:47:33;;;;;;;9.98;7.07;;;11.80;99.90;;;11.94;96.12;100990.78;5094442;28;20052;-72
2023/01/07 06:50:01;;;;;;;10.95;6.85;;;11.80;99.90;;;11.88;96.20;100972.28;5094563;28;20060;-71
2023/01/07 06:52:30;;;;;;;10.75;6.45;;;11.70;99.90;;;11.75;96.06;100967.06;5094454;28;20109;-71
2023/01/07 06:54:58;;;;;;;11.60;6.78;;;11.70;99.90;;;11.92;95.70;101013.78;5094371;28;20051;-71
2023/01/07 06:57:28;;;;;;;8.32;6.32;;;11.70;99.90;;;11.91;95.82;100989.03;5094357;28;20195;-71
2023/01/07 06:59:56;;;;;;;9.20;6.17;;;11.80;99.90;;;11.91;95.53;100999.63;5076429;28;20052;-71
2023/01/07 07:02:27;;;;;;;12.18;6.57;;;11.80;99.90;;;11.79;95.18;100989.13;5094540;28;20063;-71
2023/01/07 07:04:56;;;;;;;9.80;6.95;;;11.70;99.90;;;11.83;95.29;100974.97;5094233;28;20044;-71
2023/01/07 07:07:24;;;;;;;10.57;6.07;;;11.70;99.90;;;11.89;94.73;100993.47;5094485;28;20044;-72
2023/01/07 07:09:52;;;;;;;7.35;5.75;;;11.70;99.90;;;11.82;94.43;100964.38;5094564;28;20078;-72
2023/01/07 07:12:21;;;;;;;15.52;6.63;;;11.70;99.90;;;11.79;94.14;100958.22;5094692;28;20097;-71
2023/01/07 07:14:51;;;;;;;7.90;5.93;;;11.80;99.90;;;11.64;93.37;100929.16;5094484;28;20032;-71
2023/01/07 07:17:19;;;;;;;8.93;5.65;;;11.80;99.90;;;11.97;92.92;100967.78;5093417;28;20053;-72
2023/01/07 07:19:47;;;;;;;9.00;5.05;;;11.80;99.90;;;11.94;92.66;100972.25;5076361;28;20587;-72
2023/01/07 07:22:16;;;;;;;10.63;5.30;;;11.80;99.90;;;11.88;92.42;100957.28;5094174;28;20405;-71
2023/01/07 07:24:44;;;;;;;6.80;4.72;;;11.80;99.90;;;11.94;91.92;100969.59;5076222;28;20387;-72
2023/01/07 07:27:13;;;;;;;8.30;5.63;;;11.70;99.90;;;11.87;92.01;100949.31;5093966;28;20040;-72
2023/01/07 07:29:41;;;;;;;8.63;5.03;;;11.80;99.90;;;11.94;91.84;100956.34;5094351;28;20078;-72
2023/01/07 07:32:11;;;;;;;7.10;5.05;;;11.80;99.90;;;11.91;90.99;100966.94;5094716;28;20047;-71
2023/01/07 07:34:39;;;;;;;11.43;5.75;;;11.70;99.90;;;11.97;90.92;100957.19;5094276;28;20068;-72
2023/01/07 07:37:07;;;;;;;7.18;4.43;;;11.80;99.90;;;11.96;90.68;100962.50;5094146;28;20047;-72
2023/01/07 07:39:36;;;;;;;6.15;4.80;;;11.80;99.90;;;11.94;90.59;100957.22;5093812;28;20048;-71
2023/01/07 07:42:05;;;;;;;7.72;5.07;;;11.80;99.90;;;11.41;90.43;100848.09;5094031;28;20044;-71
2023/01/07 07:44:33;;;;;;;6.38;5.15;;;11.90;99.90;;;11.96;89.93;100917.44;5094048;28;20122;-72
2023/01/07 07:47:01;;;;;;;7.88;5.28;;;11.80;99.90;;;11.99;89.68;100943.91;5075705;28;20245;-71
2023/01/07 07:49:31;;;;;;;10.00;4.82;;;11.80;99.90;;;11.43;89.31;100873.69;5094207;28;20047;-71
2023/01/07 07:51:59;;;;;;;7.97;5.22;;;11.80;99.90;;;11.99;88.97;100938.59;5093886;28;20115;-72
2023/01/07 07:54:28;;;;;;;7.07;4.70;;;11.80;99.90;;;12.00;88.79;100945.69;5094071;28;20050;-71
2023/01/07 07:56:57;;;;;;;6.85;5.10;;;11.80;99.90;;;12.07;88.07;100928.81;5075365;28;20055;-72
2023/01/07 07:59:25;;;;;;;6.32;4.90;;;11.90;99.90;;;11.94;87.77;100896.25;5075161;28;20050;-72
2023/01/07 08:01:54;;;;;;;5.93;5.32;;;11.90;99.90;;;12.11;87.11;100951.75;5093569;28;20036;-72
2023/01/07 08:04:22;;;;;;;6.78;4.60;;;11.90;99.90;;;12.07;87.15;100920.84;5093819;28;20040;-72
2023/01/07 08:06:52;;;;;;;5.50;4.47;;;11.90;99.90;;;12.15;86.81;100924.31;5093174;28;20481;-71
2023/01/07 08:09:20;;;;;;;6.60;4.60;;;12.00;99.90;;;12.15;86.31;100932.28;5075289;28;20375;-71
2023/01/07 08:11:49;;;;;;;6.95;4.65;;;12.00;99.90;;;12.10;85.81;100936.75;5093393;28;20282;-71
2023/01/07 08:14:17;;;;;;;6.07;4.78;;;12.00;99.90;;;12.08;85.89;100949.16;5093674;28;20125;-71
2023/01/07 08:16:45;;;;;;;7.50;5.20;;;11.90;99.90;;;11.98;85.25;100899.75;5092957;28;20060;-71
2023/01/07 08:19:14;;;;;;;9.65;4.68;;;12.00;99.90;;;12.15;85.03;100943.75;5075414;28;20077;-71
2023/01/07 08:21:43;;;;;;;6.40;4.63;;;12.00;99.90;;;12.11;84.63;100919.94;5092988;28;20043;-71
2023/01/07 08:24:12;;;;;;;8.82;5.10;;;12.00;99.90;;;12.15;84.70;100927.84;5092913;28;20509;-71
2023/01/07 08:26:41;;;;;;;5.22;4.60;;;12.00;99.90;;;12.15;84.60;100909.28;5092952;28;20409;-71
2023/01/07 08:29:09;;;;;;;5.32;4.57;;;12.00;99.90;;;12.20;84.33;100943.69;5093362;28;20036;-73
2023/01/07 08:31:37;;;;;;;4.88;4.30;;;12.00;99.90;;;12.20;83.91;100912.75;5074519;28;20087;-73
2023/01/07 08:34:06;;;;;;;7.47;4.90;;;12.00;99.90;;;12.18;83.41;100941.06;5074733;28;20444;-73
2023/01/07 08:36:34;;;;;;;7.75;4.80;;;12.00;99.90;;;12.21;83.03;100903.03;5093175;28;20044;-73
2023/01/07 08:39:03;;;;;;;6.05;4.53;;;12.00;99.90;;;12.21;82.82;100916.31;5093093;28;20401;-72
2023/01/07 08:41:33;;;;;;;5.38;4.35;;;12.00;99.90;;;12.23;83.29;100933.09;5092467;28;20120;-70
2023/01/07 08:44:01;;;;;;;5.30;4.40;;;12.10;99.90;;;12.18;82.82;100930.47;5092506;28;20432;-71
2023/01/07 08:46:29;;;;;;;6.05;4.30;;;12.00;99.90;;;12.17;82.76;100904.84;5092458;28;20043;-70
2023/01/07 08:48:58;;;;;;;7.57;4.10;;;12.00;99.90;;;11.97;82.98;100893.56;5092512;28;20402;-71
2023/01/07 08:51:26;;;;;;;8.45;4.32;;;12.00;99.90;;;12.21;82.52;100918.97;5074704;28;20130;-71
2023/01/07 08:53:55;;;;;;;6.03;4.65;;;12.10;99.90;;;12.26;82.13;100927.72;5092826;28;20039;-73
2023/01/07 08:56:23;;;;;;;5.05;3.88;;;12.10;99.90;;;12.19;82.08;100911.03;5074684;28;20511;-72
2023/01/07 08:58:53;;;;;;;7.80;4.13;;;12.00;99.90;;;12.20;82.09;100904.81;5092265;28;20097;-70
2023/01/07 09:01:21;;;;;;;4.63;4.23;;;12.00;99.90;;;12.19;81.40;100870.34;5092741;28;20075;-70
2023/01/07 09:03:50;;;;;;;4.88;4.50;;;12.10;99.90;;;12.18;81.30;100903.06;5092342;28;20051;-71
2023/01/07 09:06:18;;;;;;;6.25;4.10;;;12.00;99.90;;;12.12;81.25;100861.59;5092228;28;20040;-70
2023/01/07 09:08:47;;;;;;;4.30;3.75;;;12.00;99.90;;;12.19;80.84;100891.56;5092031;28;20127;-71
2023/01/07 09:11:16;;;;;;;4.43;3.92;;;12.00;99.90;;;12.26;81.06;100885.28;5092434;28;20393;-72
2023/01/07 09:13:44;;;;;;;4.72;3.88;;;12.10;99.90;;;12.28;80.28;100872.91;5092561;28;20035;-72
2023/01/07 09:16:14;;;;;;;4.35;3.72;;;12.10;99.90;;;12.23;79.81;100843.78;5092029;28;20464;-72
2023/01/07 09:18:42;;;;;;;4.50;3.87;;;12.10;99.90;;;11.72;79.27;100784.28;5074477;28;20044;-71
2023/01/07 09:21:11;;;;;;;4.47;4.07;;;12.10;99.90;;;12.29;79.83;100890.59;5074252;28;20748;-71
2023/01/07 09:23:40;;;;;;;4.43;4.03;;;12.10;99.90;;;12.23;79.09;100915.38;5092109;28;20040;-70
2023/01/07 09:26:08;;;;;;;6.00;3.80;;;12.10;99.90;;;12.28;78.93;100838.41;5092074;28;20041;-70
2023/01/07 09:28:37;;;;;;;5.90;4.40;;;12.10;99.90;;;12.28;78.10;100867.59;5092014;28;20040;-69
2023/01/07 09:31:06;;;;;;;3.85;3.53;;;12.10;99.90;;;12.29;78.00;100853.47;5092123;28;20109;-70
2023/01/07 09:33:36;;;;;;;3.55;3.30;;;12.10;99.90;;;12.28;77.95;100838.41;5091941;28;20605;-71
2023/01/07 09:36:05;;;;;;;4.22;3.83;;;12.10;99.90;;;12.28;78.54;100820.75;5074150;28;20143;-70
2023/01/07 09:38:34;;;;;;;4.85;4.45;;;12.10;99.90;;;12.31;78.88;100849.00;5092625;28;20397;-67
2023/01/07 09:41:02;;;;;;;4.15;3.85;;;12.10;99.90;;;12.33;78.08;100837.47;5095841;28;20109;-69
2023/01/07 09:43:37;;;;;;;5.32;4.63;;;12.10;99.90;;;12.18;78.12;100802.28;5095744;28;20406;-69
2023/01/07 09:46:26;;;;;;;4.47;4.05;;;12.20;99.90;;;12.25;77.14;100827.88;5096021;28;20392;-70
2023/01/07 09:48:59;;;;;;;3.90;3.70;;;12.20;99.90;;;12.37;76.88;100827.69;5095637;28;20520;-71
2023/01/07 09:51:32;;;;;;;4.57;4.18;;;12.20;99.90;;;12.49;77.15;100830.19;5077785;28;20052;-69
2023/01/07 09:54:04;;;;;;;6.90;4.05;;;12.30;99.90;;;12.47;76.58;100826.69;5095778;28;20406;-70
2023/01/07 09:56:34;;;;;;;6.45;4.22;;;12.30;99.90;;;12.45;77.67;100824.06;5095733;28;20044;-69
2023/01/07 09:59:05;;;;;;;4.10;3.70;;;12.30;99.90;;;12.38;75.99;100821.50;5095652;28;20062;-70
2023/01/07 10:01:41;;;;;;;4.55;3.95;;;12.30;99.90;;;12.40;75.05;100803.78;5095921;28;20050;-71
2023/01/07 10:04:28;;;;;;;5.28;4.15;;;12.30;99.90;;;12.41;74.40;100794.94;5095398;28;20059;-72
2023/01/07 10:07:11;;;;;;;3.92;3.63;;;12.20;99.90;;;12.51;74.14;100783.31;5095544;28;20134;-72
2023/01/07 10:09:53;;;;;;;4.20;3.88;;;12.30;99.90;;;12.56;74.14;100754.94;5095466;28;20067;-70
2023/01/07 10:12:31;;;;;;;4.40;4.00;;;12.50;99.90;;;12.76;73.91;100774.09;5095471;28;20485;-70
2023/01/07 10:15:42;;;;;;;4.78;4.35;;;12.50;99.90;;;12.88;73.79;100787.19;5095380;28;20064;-71
2023/01/07 10:18:39;;;;;;;4.47;4.07;;;12.70;99.90;;;12.84;72.98;100792.56;5093897;28;20103;-75
2023/01/07 10:21:17;;;;;;;4.53;4.13;;;12.70;99.90;;;12.81;73.22;100776.69;5095600;28;20126;-74
2023/01/07 10:23:50;;;;;;;4.15;3.85;;;12.70;99.90;;;12.78;72.66;100774.06;5095662;28;20044;-77